Time;durP1;ratioP1;P1;durP2;ratioP2;P2;SDS_P1;SDS_P2;PMS_P1;PMS_P2;Temp;Humidity;BMP_temperature;BMP_pressure;BME280_temperature;BME280_humidity;BME280_pressure;Samples;Min_cycle;Max_cycle;Signal;HPM_P1;HPM_P2
2023/11/21 00:00:55;;;;;;;12.90;5.40;;;;;;;1.47;56.76;100139.19;105606;1260;60448;-58
2023/11/21 00:03:23;;;;;;;9.10;3.90;;;;;;;1.46;56.82;100144.42;105681;1258;72643;-57
2023/11/21 00:05:52;;;;;;;8.10;2.90;;;;;;;1.55;56.76;100141.77;105144;1261;60572;-57
2023/11/21 00:08:19;;;;;;;13.90;4.60;;;;;;;1.64;56.64;100138.23;106502;1261;60452;-57
2023/11/21 00:10:48;;;;;;;13.40;4.50;;;;;;;1.74;56.73;100137.79;105195;1257;64961;-56
2023/11/21 00:13:17;;;;;;;14.60;5.10;;;;;;;1.84;56.68;100137.66;105099;1265;60163;-58
2023/11/21 00:15:45;;;;;;;9.50;4.30;;;;;;;1.91;56.56;100134.55;107388;1257;62514;-57
2023/11/21 00:18:13;;;;;;;12.50;5.60;;;;;;;1.95;56.44;100140.92;105089;1256;60478;-57
2023/11/21 00:20:41;;;;;;;10.60;4.90;;;;;;;1.96;56.39;100139.16;106863;1256;60543;-57
2023/11/21 00:23:09;;;;;;;19.00;6.20;;;;;;;1.96;56.30;100139.36;105155;1257;63702;-60
2023/11/21 00:25:37;;;;;;;10.40;4.10;;;;;;;1.93;56.12;100139.30;106356;1256;61382;-58
2023/11/21 00:28:05;;;;;;;13.20;5.90;;;;;;;1.91;55.96;100137.67;105827;1260;63749;-58
2023/11/21 00:30:33;;;;;;;12.60;3.90;;;;;;;1.87;56.02;100139.23;105811;1256;60452;-58
2023/11/21 00:33:00;;;;;;;13.00;5.80;;;;;;;1.82;56.13;100138.08;105542;1258;60368;-58
2023/11/21 00:35:28;;;;;;;11.50;4.60;;;;;;;1.79;56.22;100140.11;108801;1260;64866;-58
2023/11/21 00:37:57;;;;;;;11.00;4.40;;;;;;;1.74;56.20;100148.49;107476;1256;60464;-57
2023/11/21 00:40:25;;;;;;;13.60;4.40;;;;;;;1.69;56.29;100150.11;105546;1256;66724;-56
2023/11/21 00:42:53;;;;;;;11.00;4.30;;;;;;;1.62;56.30;100153.20;105317;1257;61636;-57
2023/11/21 00:45:20;;;;;;;11.00;4.10;;;;;;;1.54;56.40;100158.06;105782;1256;60412;-59
2023/11/21 00:47:48;;;;;;;10.10;4.20;;;;;;;1.48;56.47;100165.41;106480;1260;64946;-58
2023/11/21 00:50:16;;;;;;;12.80;4.20;;;;;;;1.43;56.65;100172.42;104980;1262;60435;-58
2023/11/21 00:52:43;;;;;;;12.90;4.30;;;;;;;1.38;56.76;100175.23;104887;1259;62663;-58
2023/11/21 00:55:11;;;;;;;9.50;4.60;;;;;;;1.35;56.88;100180.04;104974;1265;60552;-58
2023/11/21 00:57:39;;;;;;;10.30;3.40;;;;;;;1.33;56.88;100179.59;105366;1257;60637;-58
2023/11/21 01:00:13;;;;;;;13.10;4.20;;;;;;;1.40;56.90;100178.77;105538;1257;64904;-58
2023/11/21 01:02:41;;;;;;;9.60;2.50;;;;;;;1.47;56.79;100172.55;105506;1256;61454;-57
2023/11/21 01:05:09;;;;;;;8.90;2.90;;;;;;;1.57;56.92;100164.88;105378;1259;64148;-57
2023/11/21 01:07:36;;;;;;;8.40;3.60;;;;;;;1.66;56.89;100171.34;105432;1256;60530;-56
2023/11/21 01:10:07;;;;;;;8.90;2.80;;;;;;;1.73;56.75;100177.79;105617;1260;60448;-56
2023/11/21 01:12:38;;;;;;;13.40;5.00;;;;;;;1.76;56.66;100183.69;105335;1262;65394;-57
2023/11/21 01:15:11;;;;;;;7.80;3.80;;;;;;;1.77;56.67;100183.46;106119;1261;60588;-56
2023/11/21 01:17:40;;;;;;;10.10;5.20;;;;;;;1.77;56.72;100177.41;105909;1257;73578;-57
2023/11/21 01:20:12;;;;;;;11.90;5.50;;;;;;;1.78;56.67;100171.34;105525;1262;60459;-57
2023/11/21 01:22:41;;;;;;;10.70;4.00;;;;;;;1.80;56.66;100173.11;106630;1261;60892;-57
2023/11/21 01:25:10;;;;;;;9.80;4.00;;;;;;;1.81;56.42;100178.79;105218;1257;63668;-57
2023/11/21 01:27:38;;;;;;;10.70;4.50;;;;;;;1.77;56.37;100176.02;105309;1262;60598;-58
2023/11/21 01:30:07;;;;;;;11.80;4.70;;;;;;;1.72;56.32;100167.98;105218;1257;62454;-58
2023/11/21 01:32:36;;;;;;;9.60;4.00;;;;;;;1.69;56.54;100173.64;105358;1258;60562;-58
2023/11/21 01:35:06;;;;;;;10.30;4.10;;;;;;;1.66;56.66;100172.75;105020;1256;60386;-58
2023/11/21 01:37:33;;;;;;;10.20;4.70;;;;;;;1.63;56.70;100173.05;105321;1257;64901;-58
2023/11/21 01:40:02;;;;;;;8.80;3.80;;;;;;;1.60;56.85;100179.58;105323;1260;60501;-57
2023/11/21 01:42:30;;;;;;;15.60;5.40;;;;;;;1.58;56.86;100183.83;106286;1256;62448;-58
2023/11/21 01:44:58;;;;;;;11.60;5.10;;;;;;;1.56;56.92;100180.46;107014;1256;60440;-57
2023/11/21 01:47:25;;;;;;;9.80;3.60;;;;;;;1.55;57.05;100185.04;105749;1260;60365;-56
2023/11/21 01:49:53;;;;;;;11.10;4.20;;;;;;;1.53;57.16;100183.20;105459;1256;63902;-56
2023/11/21 01:52:22;;;;;;;14.40;4.30;;;;;;;1.52;57.07;100182.56;106406;1261;61369;-57
2023/11/21 01:54:49;;;;;;;12.10;5.00;;;;;;;1.48;57.19;100184.96;105891;1259;62419;-56
2023/11/21 01:57:20;;;;;;;12.90;5.60;;;;;;;1.45;57.20;100188.92;106016;1260;60444;-57
2023/11/21 01:59:47;;;;;;;8.40;4.10;;;;;;;1.43;57.38;100191.77;105791;1257;60391;-58
2023/11/21 02:02:15;;;;;;;12.30;4.90;;;;;;;1.41;57.44;100198.24;105264;1256;65096;-58
2023/11/21 02:04:43;;;;;;;12.70;4.40;;;;;;;1.40;57.31;100198.80;105808;1258;60934;-58
2023/11/21 02:07:11;;;;;;;11.30;3.90;;;;;;;1.45;56.96;100201.17;105733;1260;64706;-57
2023/11/21 02:09:42;;;;;;;10.40;4.00;;;;;;;1.50;56.88;100201.48;106856;1256;60543;-58
2023/11/21 02:12:10;;;;;;;9.20;2.80;;;;;;;1.58;56.78;100201.82;106227;1253;60358;-58
2023/11/21 02:14:39;;;;;;;7.40;2.60;;;;;;;1.66;56.79;100201.78;106059;1258;64973;-57
2023/11/21 02:17:07;;;;;;;8.90;3.40;;;;;;;1.72;56.59;100201.17;107603;1256;60148;-57
2023/11/21 02:19:35;;;;;;;10.40;4.00;;;;;;;1.75;56.55;100195.65;105401;1253;64314;-59
2023/11/21 02:22:06;;;;;;;9.20;3.90;;;;;;;1.76;56.39;100197.15;105177;1253;60499;-59
2023/11/21 02:24:34;;;;;;;8.50;3.90;;;;;;;1.78;56.36;100201.60;105711;1253;61815;-56
2023/11/21 02:27:01;;;;;;;13.70;4.50;;;;;;;1.77;56.30;100203.86;106042;1253;65502;-58
2023/11/21 02:29:29;;;;;;;10.10;4.50;;;;;;;1.75;56.33;100202.26;106271;1257;61563;-58
2023/11/21 02:31:57;;;;;;;8.80;4.40;;;;;;;1.70;56.44;100202.14;105858;1254;63747;-57
2023/11/21 02:34:25;;;;;;;11.10;3.70;;;;;;;1.63;56.58;100203.14;106024;1258;60641;-58
2023/11/21 02:36:53;;;;;;;13.00;5.50;;;;;;;1.57;56.80;100212.77;105831;1260;60367;-58
2023/11/21 02:39:24;;;;;;;9.30;4.90;;;;;;;1.48;56.81;100214.50;106559;1253;63879;-57
2023/11/21 02:41:52;;;;;;;15.30;4.80;;;;;;;1.40;57.04;100217.84;106522;1256;61868;-57
2023/11/21 02:44:22;;;;;;;8.90;3.10;;;;;;;1.32;57.10;100217.69;106125;1253;62580;-57
2023/11/21 02:46:49;;;;;;;12.80;5.60;;;;;;;1.23;57.21;100225.14;105203;1258;60473;-58
2023/11/21 02:49:17;;;;;;;11.30;5.10;;;;;;;1.14;57.36;100223.96;105293;1254;60450;-58
2023/11/21 02:51:45;;;;;;;10.00;4.30;;;;;;;1.08;57.57;100225.46;105193;1260;64995;-58
2023/11/21 02:54:13;;;;;;;16.60;5.40;;;;;;;1.01;57.64;100235.61;105788;1263;61358;-53
2023/11/21 02:56:42;;;;;;;11.60;3.90;;;;;;;0.92;57.72;100239.23;106577;1258;62469;-59
2023/11/21 02:59:10;;;;;;;13.60;5.30;;;;;;;0.83;57.88;100242.90;105446;1259;60435;-57
2023/11/21 03:01:38;;;;;;;13.00;3.80;;;;;;;0.77;58.10;100243.00;106097;1257;60488;-58
2023/11/21 03:04:06;;;;;;;8.50;3.70;;;;;;;0.74;58.42;100243.61;105487;1253;63641;-59
2023/11/21 03:06:34;;;;;;;9.90;4.00;;;;;;;0.78;58.52;100240.69;105502;1258;60455;-57
2023/11/21 03:09:02;;;;;;;6.90;3.10;;;;;;;0.86;58.37;100236.06;105234;1257;64236;-57
2023/11/21 03:11:30;;;;;;;8.90;2.80;;;;;;;0.93;58.25;100233.52;105648;1253;60520;-57
2023/11/21 03:13:57;;;;;;;8.10;2.80;;;;;;;0.98;58.10;100234.15;105900;1253;60529;-60
2023/11/21 03:16:25;;;;;;;11.20;3.40;;;;;;;1.00;58.10;100234.58;105265;1255;71710;-62
2023/11/21 03:18:53;;;;;;;7.50;2.80;;;;;;;1.04;58.10;100232.88;106543;1253;61438;-57
2023/11/21 03:21:21;;;;;;;6.30;2.40;;;;;;;1.10;58.07;100235.73;106338;1256;63860;-58
2023/11/21 03:23:51;;;;;;;9.40;3.70;;;;;;;1.14;58.03;100234.50;105504;1254;60571;-59
2023/11/21 03:26:19;;;;;;;9.50;4.00;;;;;;;1.15;58.12;100236.53;105293;1259;60638;-58
2023/11/21 03:28:47;;;;;;;10.60;4.10;;;;;;;1.14;57.94;100238.68;105389;1261;63885;-59
2023/11/21 03:31:17;;;;;;;12.80;4.50;;;;;;;1.07;57.99;100238.77;105681;1258;61400;-58
2023/11/21 03:33:45;;;;;;;9.20;3.40;;;;;;;1.00;58.12;100237.73;106586;1257;62534;-58
2023/11/21 03:36:14;;;;;;;7.70;3.90;;;;;;;0.94;58.24;100238.11;105485;1255;60443;-57
2023/11/21 03:38:42;;;;;;;11.20;4.70;;;;;;;0.91;58.33;100238.80;105405;1256;60320;-57
2023/11/21 03:41:10;;;;;;;13.00;6.10;;;;;;;0.86;58.33;100239.86;105684;1257;65312;-59
2023/11/21 03:43:37;;;;;;;10.60;3.70;;;;;;;0.82;58.39;100239.34;105461;1258;60350;-59
2023/11/21 03:46:07;;;;;;;10.60;4.40;;;;;;;0.83;58.49;100237.91;105079;1259;71682;-59
2023/11/21 03:48:36;;;;;;;9.70;4.40;;;;;;;0.80;58.47;100236.48;105700;1257;60547;-58
2023/11/21 03:51:04;;;;;;;11.10;4.90;;;;;;;0.77;58.39;100238.86;105302;1258;60552;-57
2023/11/21 03:53:35;;;;;;;9.90;4.30;;;;;;;0.66;58.28;100240.35;105912;1254;65996;-58
2023/11/21 03:56:06;;;;;;;9.10;3.30;;;;;;;0.55;58.29;100246.13;105435;1259;69025;-57
2023/11/21 03:58:34;;;;;;;22.50;5.20;;;;;;;0.48;58.60;100249.33;108712;1254;62616;-58
2023/11/21 04:01:01;;;;;;;17.80;4.90;;;;;;;0.45;58.85;100250.51;105227;1259;60322;-58
2023/11/21 04:03:29;;;;;;;12.50;4.20;;;;;;;0.43;58.90;100249.37;105713;1258;61203;-57
2023/11/21 04:05:57;;;;;;;11.40;5.40;;;;;;;0.37;58.90;100254.80;107120;1258;63798;-58
2023/11/21 04:08:25;;;;;;;11.10;5.40;;;;;;;0.32;59.15;100252.58;105847;1258;70021;-59
2023/11/21 04:10:53;;;;;;;10.90;4.60;;;;;;;0.26;59.29;100252.64;105858;1260;62547;-58
2023/11/21 04:13:21;;;;;;;14.80;5.90;;;;;;;0.20;59.52;100252.71;109191;1253;58441;-58
2023/11/21 04:15:49;;;;;;;13.60;7.00;;;;;;;0.14;59.59;100256.02;105747;1266;60448;-59
2023/11/21 04:18:16;;;;;;;11.90;3.80;;;;;;;0.09;59.85;100263.32;105712;1254;64941;-59
2023/11/21 04:20:44;;;;;;;10.20;3.20;;;;;;;0.05;60.07;100267.60;105301;1257;69026;-57
2023/11/21 04:23:13;;;;;;;9.10;3.40;;;;;;;0.13;60.01;100269.70;105413;1257;71470;-58
2023/11/21 04:25:41;;;;;;;9.70;3.00;;;;;;;0.25;59.78;100270.27;105315;1259;60910;-58
2023/11/21 04:28:09;;;;;;;11.90;3.50;;;;;;;0.32;59.93;100276.57;105566;1257;60424;-57
2023/11/21 04:30:36;;;;;;;9.90;3.00;;;;;;;0.44;59.97;100273.70;105709;1259;72602;-57
2023/11/21 04:33:05;;;;;;;10.70;3.40;;;;;;;0.55;60.18;100271.16;105567;1257;61425;-58
2023/11/21 04:35:32;;;;;;;10.50;4.20;;;;;;;0.66;59.97;100276.61;106212;1257;62455;-58
2023/11/21 04:38:00;;;;;;;15.60;2.80;;;;;;;0.72;59.76;100273.92;106337;1254;60654;-56
2023/11/21 04:40:28;;;;;;;7.70;3.50;;;;;;;0.74;59.70;100270.05;105212;1254;60356;-57
2023/11/21 04:42:57;;;;;;;13.10;4.70;;;;;;;0.76;59.68;100276.88;105669;1258;74304;-57
2023/11/21 04:45:24;;;;;;;8.40;3.40;;;;;;;0.75;59.74;100278.45;105889;1258;60518;-57
2023/11/21 04:47:52;;;;;;;10.20;4.80;;;;;;;0.75;59.58;100279.15;105140;1254;72725;-58
2023/11/21 04:50:20;;;;;;;10.30;3.30;;;;;;;0.74;59.47;100285.26;106392;1259;60562;-58
2023/11/21 04:52:48;;;;;;;11.50;3.60;;;;;;;0.73;59.50;100285.45;105167;1253;60845;-57
2023/11/21 04:55:15;;;;;;;13.50;4.70;;;;;;;0.71;59.51;100288.11;105410;1259;64878;-58
2023/11/21 04:57:43;;;;;;;10.00;3.70;;;;;;;0.71;59.60;100293.30;106169;1257;61295;-58
2023/11/21 05:00:12;;;;;;;12.40;4.60;;;;;;;0.68;59.57;100295.14;105181;1259;72769;-58
2023/11/21 05:02:41;;;;;;;11.30;4.90;;;;;;;0.65;59.42;100294.25;105740;1254;60497;-58
2023/11/21 05:05:10;;;;;;;12.30;4.50;;;;;;;0.58;59.47;100302.82;105543;1252;60563;-58
2023/11/21 05:07:39;;;;;;;9.50;4.20;;;;;;;0.52;59.51;100312.85;105462;1253;72567;-57
2023/11/21 05:10:08;;;;;;;11.50;4.30;;;;;;;0.48;59.66;100318.05;105378;1260;60571;-59
2023/11/21 05:12:39;;;;;;;12.50;4.80;;;;;;;0.44;59.84;100326.14;107363;1254;64248;-58
2023/11/21 05:15:09;;;;;;;22.90;4.30;;;;;;;0.43;59.84;100325.82;106654;1254;60585;-58
2023/11/21 05:17:39;;;;;;;11.90;6.10;;;;;;;0.41;59.96;100325.92;108773;1254;58764;-58
2023/11/21 05:20:09;;;;;;;10.80;4.40;;;;;;;0.42;59.94;100331.56;105388;1254;72683;-58
2023/11/21 05:22:37;;;;;;;12.30;5.20;;;;;;;0.40;60.10;100334.59;105458;1259;61292;-60
2023/11/21 05:25:07;;;;;;;11.10;4.40;;;;;;;0.43;60.29;100337.73;106490;1257;62508;-59
2023/11/21 05:27:35;;;;;;;9.40;5.50;;;;;;;0.44;60.43;100336.15;105156;1260;60508;-59
2023/11/21 05:30:05;;;;;;;16.90;6.20;;;;;;;0.46;60.46;100337.10;106316;1254;60597;-60
2023/11/21 05:32:33;;;;;;;11.90;4.20;;;;;;;0.51;60.62;100334.51;107002;1257;63664;-59
2023/11/21 05:35:01;;;;;;;11.80;5.10;;;;;;;0.67;60.56;100327.30;106275;1259;68698;-59
2023/11/21 05:37:28;;;;;;;12.30;4.80;;;;;;;0.83;60.64;100327.36;105732;1257;63677;-59
2023/11/21 05:39:56;;;;;;;9.90;3.50;;;;;;;0.98;60.60;100323.13;105827;1257;60703;-60
2023/11/21 05:42:24;;;;;;;11.30;4.20;;;;;;;1.14;60.63;100335.95;106742;1256;59235;-58
2023/11/21 05:44:51;;;;;;;7.50;3.70;;;;;;;1.31;60.49;100341.27;105547;1254;72615;-58
2023/11/21 05:47:19;;;;;;;13.20;6.10;;;;;;;1.40;60.48;100347.11;105059;1258;62412;-58
2023/11/21 05:49:50;;;;;;;12.20;4.70;;;;;;;1.45;60.43;100357.11;106200;1257;70473;-58
2023/11/21 05:52:18;;;;;;;10.30;4.80;;;;;;;1.48;60.21;100361.29;105922;1254;60549;-57
2023/11/21 05:54:46;;;;;;;11.70;4.90;;;;;;;1.49;59.98;100365.92;108436;1255;58573;-57
2023/11/21 05:57:13;;;;;;;11.30;5.90;;;;;;;1.49;59.78;100369.04;104999;1255;64945;-59
2023/11/21 05:59:41;;;;;;;12.00;5.50;;;;;;;1.49;59.63;100368.70;105611;1258;68829;-51
2023/11/21 06:02:09;;;;;;;10.80;4.70;;;;;;;1.45;59.50;100370.92;106211;1254;63782;-58
2023/11/21 06:04:37;;;;;;;9.00;4.40;;;;;;;1.43;59.43;100372.39;109148;1254;59853;-59
2023/11/21 06:07:05;;;;;;;12.60;5.90;;;;;;;1.43;59.25;100370.66;107021;1253;60368;-58
2023/11/21 06:09:32;;;;;;;11.10;4.60;;;;;;;1.41;59.29;100368.33;105225;1257;73914;-58
2023/11/21 06:12:00;;;;;;;10.80;4.80;;;;;;;1.42;59.28;100368.11;106187;1254;70188;-58
2023/11/21 06:14:27;;;;;;;13.60;5.00;;;;;;;1.43;59.30;100366.36;106763;1252;72623;-58
2023/11/21 06:16:56;;;;;;;12.90;5.30;;;;;;;1.44;59.25;100357.48;105283;1259;60595;-57
2023/11/21 06:19:24;;;;;;;12.20;4.30;;;;;;;1.46;59.26;100351.69;106159;1253;60345;-60
2023/11/21 06:21:51;;;;;;;12.90;5.10;;;;;;;1.46;59.26;100358.09;105233;1264;74223;-60
2023/11/21 06:24:20;;;;;;;11.50;5.70;;;;;;;1.47;59.34;100363.77;106797;1254;61504;-59
2023/11/21 06:26:48;;;;;;;13.80;5.80;;;;;;;1.48;59.41;100366.49;105937;1257;64130;-59
2023/11/21 06:29:16;;;;;;;11.40;4.70;;;;;;;1.49;59.48;100359.33;105605;1257;60486;-58
2023/11/21 06:31:44;;;;;;;10.60;5.20;;;;;;;1.51;59.56;100363.40;105081;1258;60537;-56
2023/11/21 06:34:12;;;;;;;12.60;5.10;;;;;;;1.52;59.82;100360.81;106208;1256;73853;-57
2023/11/21 06:36:40;;;;;;;12.70;4.20;;;;;;;1.57;59.86;100362.66;105800;1253;70481;-58
2023/11/21 06:39:08;;;;;;;10.50;4.60;;;;;;;1.68;59.77;100366.30;105139;1255;72669;-57
2023/11/21 06:41:38;;;;;;;8.60;2.90;;;;;;;1.82;59.59;100369.17;105614;1254;60658;-58
2023/11/21 06:44:08;;;;;;;11.00;3.80;;;;;;;1.94;59.42;100371.91;105595;1254;60433;-58
2023/11/21 06:46:38;;;;;;;8.50;3.40;;;;;;;2.02;59.25;100372.95;105479;1254;64971;-56
2023/11/21 06:49:08;;;;;;;9.80;3.60;;;;;;;2.12;59.13;100376.67;105331;1257;60580;-64
2023/11/21 06:51:36;;;;;;;13.40;4.50;;;;;;;2.24;58.97;100377.33;105330;1254;71766;-60
2023/11/21 06:54:04;;;;;;;8.90;3.90;;;;;;;2.34;59.06;100372.91;105006;1254;60492;-61
2023/11/21 06:56:32;;;;;;;10.30;4.50;;;;;;;2.41;58.83;100370.34;105043;1257;60354;-61
2023/11/21 06:59:00;;;;;;;13.10;5.70;;;;;;;2.43;58.73;100368.35;105012;1257;64903;-62
2023/11/21 07:01:28;;;;;;;12.50;5.10;;;;;;;2.45;58.79;100374.64;105034;1260;61628;-61
2023/11/21 07:03:55;;;;;;;12.80;5.40;;;;;;;2.52;58.69;100379.04;105126;1255;64158;-62
2023/11/21 07:06:23;;;;;;;13.00;5.30;;;;;;;2.53;58.50;100376.70;105665;1254;60588;-59
2023/11/21 07:08:51;;;;;;;12.00;5.40;;;;;;;2.54;58.49;100379.63;108302;1254;60459;-61
2023/11/21 07:11:21;;;;;;;13.70;5.30;;;;;;;2.51;58.41;100379.23;105467;1254;72585;-62
2023/11/21 07:13:48;;;;;;;13.10;6.10;;;;;;;2.49;58.46;100376.23;106041;1255;61423;-63
2023/11/21 07:16:16;;;;;;;9.50;5.70;;;;;;;2.49;58.53;100382.10;106061;1254;64213;-61
2023/11/21 07:18:44;;;;;;;10.80;5.80;;;;;;;2.47;58.60;100383.25;106403;1257;60553;-62
2023/11/21 07:21:15;;;;;;;12.40;5.60;;;;;;;2.42;58.63;100386.04;105301;1254;60466;-60
2023/11/21 07:23:43;;;;;;;12.70;7.50;;;;;;;2.37;58.75;100389.73;107157;1254;63873;-61
2023/11/21 07:26:11;;;;;;;11.40;5.20;;;;;;;2.36;58.88;100390.63;105098;1254;60812;-61
2023/11/21 07:28:38;;;;;;;12.90;6.00;;;;;;;2.33;58.93;100385.92;106157;1257;70914;-61
2023/11/21 07:31:06;;;;;;;12.60;5.40;;;;;;;2.31;58.94;100389.29;107706;1254;60537;-63
2023/11/21 07:33:34;;;;;;;11.80;4.70;;;;;;;2.31;58.98;100387.56;107425;1253;61293;-62
2023/11/21 07:36:02;;;;;;;13.70;5.50;;;;;;;2.32;59.18;100394.27;105341;1256;74636;-61
2023/11/21 07:38:29;;;;;;;10.50;4.40;;;;;;;2.36;59.07;100392.73;105686;1257;60448;-61
2023/11/21 07:40:57;;;;;;;9.30;3.80;;;;;;;2.45;58.79;100387.65;105282;1254;64260;-61
2023/11/21 07:43:25;;;;;;;10.80;4.30;;;;;;;2.58;58.56;100387.73;105510;1258;60451;-62
2023/11/21 07:45:53;;;;;;;7.60;3.00;;;;;;;2.67;58.09;100387.16;107114;1253;60441;-62
2023/11/21 07:48:21;;;;;;;8.40;3.50;;;;;;;2.76;57.86;100389.33;105225;1254;65060;-62
2023/11/21 07:50:48;;;;;;;9.80;4.90;;;;;;;2.87;57.86;100392.45;106197;1254;61360;-62
2023/11/21 07:53:16;;;;;;;12.60;4.10;;;;;;;3.00;57.74;100394.92;105413;1254;72301;-62
2023/11/21 07:55:45;;;;;;;11.50;4.80;;;;;;;3.06;57.38;100396.38;105464;1258;60417;-62
2023/11/21 07:58:12;;;;;;;12.00;5.40;;;;;;;3.10;57.11;100399.10;102538;1254;3712030;-61
2023/11/21 08:02:01;;;;;;;8.40;3.60;;;;;;;2.91;57.48;100391.38;102219;1292;601043;-60
2023/11/21 08:04:29;;;;;;;10.40;4.30;;;;;;;3.10;56.51;100395.66;105056;1268;59231;-64
2023/11/21 08:07:01;;;;;;;8.50;3.80;;;;;;;3.08;56.31;100397.66;108317;1268;57287;-61
2023/11/21 08:09:29;;;;;;;8.60;4.60;;;;;;;3.11;56.16;100403.59;108237;1267;62076;-61
2023/11/21 08:11:57;;;;;;;9.70;4.50;;;;;;;3.14;55.96;100405.19;108358;1266;60106;-60
2023/11/21 08:14:25;;;;;;;9.90;4.20;;;;;;;3.16;55.81;100397.95;105498;1269;3589733;-60
2023/11/21 08:16:57;;;;;;;10.80;3.90;;;;;;;3.20;55.68;100398.10;108555;1261;57285;-62
2023/11/21 08:19:25;;;;;;;9.70;4.30;;;;;;;3.26;55.43;100402.86;105294;1268;59332;-60
2023/11/21 08:21:54;;;;;;;7.50;2.90;;;;;;;3.31;55.50;100402.77;106206;1262;71064;-61
2023/11/21 08:24:22;;;;;;;10.60;3.40;;;;;;;3.35;55.21;100406.58;105491;1264;61829;-66
2023/11/21 08:26:50;;;;;;;9.50;3.20;;;;;;;3.39;54.97;100406.23;104834;1262;73642;-61
2023/11/21 08:29:18;;;;;;;11.80;3.70;;;;;;;3.39;54.76;100408.80;104839;1264;59706;-60
2023/11/21 08:31:46;;;;;;;11.50;4.00;;;;;;;3.39;54.46;100408.63;106417;1258;59398;-60
2023/11/21 08:34:15;;;;;;;8.70;3.30;;;;;;;3.41;54.33;100406.83;105234;1259;64771;-61
2023/11/21 08:36:43;;;;;;;8.90;2.80;;;;;;;3.43;54.13;100408.09;105918;1253;61394;-60
2023/11/21 08:39:12;;;;;;;8.00;3.00;;;;;;;3.41;53.91;100410.77;105255;1256;73854;-62
2023/11/21 08:41:41;;;;;;;7.10;3.40;;;;;;;3.36;53.93;100412.40;105074;1253;61514;-61
2023/11/21 08:44:09;;;;;;;6.30;2.40;;;;;;;3.34;53.96;100407.48;105417;1259;59295;-60
2023/11/21 08:46:38;;;;;;;8.00;3.10;;;;;;;3.33;53.86;100405.27;105219;1259;66413;-60
2023/11/21 08:49:06;;;;;;;7.00;3.00;;;;;;;3.33;53.85;100405.59;106172;1253;61916;-61
2023/11/21 08:51:34;;;;;;;11.50;4.40;;;;;;;3.36;53.68;100404.09;106287;1258;64332;-59
2023/11/21 08:54:07;;;;;;;9.40;3.90;;;;;;;3.39;53.65;100406.71;108950;1254;57706;-60
2023/11/21 08:56:35;;;;;;;11.80;3.70;;;;;;;3.40;53.61;100406.32;109114;1253;57639;-59
2023/11/21 08:59:04;;;;;;;8.20;3.50;;;;;;;3.41;53.61;100408.16;109059;1255;63001;-60
2023/11/21 09:01:32;;;;;;;10.30;5.40;;;;;;;3.43;53.62;100411.56;109068;1254;61695;-60
2023/11/21 09:04:00;;;;;;;11.20;4.60;;;;;;;3.45;53.66;100408.14;109015;1253;63668;-62
2023/11/21 09:06:28;;;;;;;8.00;4.00;;;;;;;3.48;53.62;100404.55;109078;1254;59739;-61
2023/11/21 09:08:55;;;;;;;8.50;3.10;;;;;;;3.51;53.63;100402.65;107014;1253;59698;-60
2023/11/21 09:11:25;;;;;;;8.60;3.50;;;;;;;3.54;53.57;100404.39;105232;1257;64275;-60
2023/11/21 09:13:52;;;;;;;9.30;3.20;;;;;;;3.53;53.32;100403.74;105010;1259;61830;-60
2023/11/21 09:16:20;;;;;;;11.50;3.70;;;;;;;3.54;53.15;100403.03;105742;1259;62466;-60
2023/11/21 09:18:48;;;;;;;9.00;3.70;;;;;;;3.53;53.09;100395.27;106292;1259;59696;-60
2023/11/21 09:21:15;;;;;;;6.40;2.80;;;;;;;3.51;52.98;100393.27;105350;1260;59664;-60
2023/11/21 09:23:48;;;;;;;9.60;3.10;;;;;;;3.49;52.98;100388.67;105261;1258;72248;-61
2023/11/21 09:26:16;;;;;;;7.60;2.60;;;;;;;3.46;53.00;100397.16;105230;1259;60128;-62
2023/11/21 09:28:47;;;;;;;9.40;3.90;;;;;;;3.44;52.94;100405.06;106032;1255;63730;-58
2023/11/21 09:31:16;;;;;;;9.50;2.60;;;;;;;3.44;52.96;100407.16;105228;1256;59753;-60
2023/11/21 09:33:48;;;;;;;8.10;3.20;;;;;;;3.45;53.00;100403.30;105354;1256;62207;-59
2023/11/21 09:36:15;;;;;;;10.00;3.90;;;;;;;3.45;52.97;100394.96;105441;1259;62888;-60
2023/11/21 09:38:43;;;;;;;8.00;3.30;;;;;;;3.46;52.95;100393.87;105673;1259;60331;-60
2023/11/21 09:41:19;;;;;;;8.80;3.80;;;;;;;3.45;53.14;100398.61;105265;1258;62580;-62
2023/11/21 09:43:47;;;;;;;9.30;4.70;;;;;;;3.45;53.21;100400.67;107102;1258;58325;-61
2023/11/21 09:46:19;;;;;;;9.40;4.60;;;;;;;3.46;53.20;100403.92;105812;1259;59763;-61
2023/11/21 09:48:51;;;;;;;9.10;3.50;;;;;;;3.48;53.12;100403.86;106624;1256;62883;-62
2023/11/21 09:51:21;;;;;;;9.90;3.60;;;;;;;3.49;53.12;100402.60;106564;1258;60229;-62
2023/11/21 09:53:52;;;;;;;9.80;4.40;;;;;;;3.51;53.13;100399.02;105381;1258;62456;-63
2023/11/21 09:56:23;;;;;;;11.70;4.80;;;;;;;3.53;53.25;100396.83;106515;1260;59637;-62
2023/11/21 09:58:52;;;;;;;10.10;3.90;;;;;;;3.51;53.22;100396.25;105153;1259;59813;-60
2023/11/21 10:01:21;;;;;;;9.60;4.00;;;;;;;3.54;53.28;100392.09;106283;1259;64169;-60
2023/11/21 10:03:48;;;;;;;8.90;4.00;;;;;;;3.57;53.14;100396.48;105124;1258;60221;-60
2023/11/21 10:06:16;;;;;;;14.40;4.80;;;;;;;3.55;52.77;100396.36;109071;1259;71464;-60
2023/11/21 10:08:44;;;;;;;10.20;4.80;;;;;;;3.55;52.87;100394.83;106096;1260;59640;-60
2023/11/21 10:11:26;;;;;;;15.10;4.90;;;;;;;3.57;52.91;100388.66;105187;1259;59562;-59
2023/11/21 10:13:54;;;;;;;10.50;4.70;;;;;;;3.61;52.92;100388.98;105244;1259;66580;-59
2023/11/21 10:16:22;;;;;;;17.20;5.80;;;;;;;3.65;52.78;100391.19;105903;1258;60476;-60
2023/11/21 10:18:52;;;;;;;11.20;4.30;;;;;;;3.68;52.62;100383.23;105930;1259;64295;-61
2023/11/21 10:21:20;;;;;;;12.30;5.30;;;;;;;3.73;52.54;100386.45;109217;1253;61942;-61
2023/11/21 10:23:47;;;;;;;9.60;4.70;;;;;;;3.76;52.46;100389.08;109081;1260;57780;-61
2023/11/21 10:26:16;;;;;;;10.10;4.60;;;;;;;3.79;52.34;100387.39;105261;1262;64866;-60
2023/11/21 10:29:04;;;;;;;11.70;5.40;;;;;;;3.80;52.35;100386.79;106855;1253;60516;-59
2023/11/21 10:31:32;;;;;;;10.60;4.80;;;;;;;3.80;52.52;100387.15;105600;1254;74899;-60
2023/11/21 10:34:18;;;;;;;10.30;4.20;;;;;;;3.82;52.51;100389.09;106312;1261;59755;-59
2023/11/21 10:36:46;;;;;;;10.90;4.40;;;;;;;3.83;52.45;100388.02;106152;1258;59666;-60
2023/11/21 10:39:18;;;;;;;9.90;4.10;;;;;;;3.84;52.44;100389.31;106883;1256;75112;-61
2023/11/21 10:41:46;;;;;;;12.90;4.90;;;;;;;3.86;52.42;100386.63;105440;1258;63766;-58
2023/11/21 10:44:20;;;;;;;12.50;6.70;;;;;;;3.91;52.48;100388.10;106981;1259;63877;-60
2023/11/21 10:46:56;;;;;;;11.60;4.40;;;;;;;3.94;52.47;100391.96;105884;1260;61398;-59
2023/11/21 10:49:25;;;;;;;11.80;3.80;;;;;;;3.98;52.41;100394.21;105636;1254;59663;-61
2023/11/21 10:51:53;;;;;;;11.30;4.20;;;;;;;3.98;52.46;100395.77;105818;1259;63300;-59
2023/11/21 10:54:21;;;;;;;11.60;4.70;;;;;;;3.96;52.42;100402.42;105745;1259;60567;-60
2023/11/21 10:56:51;;;;;;;13.40;4.50;;;;;;;3.98;52.34;100403.55;108262;1260;74890;-60
2023/11/21 10:59:20;;;;;;;10.20;4.70;;;;;;;4.00;52.34;100406.55;106417;1254;59907;-59
2023/11/21 11:01:49;;;;;;;11.30;4.50;;;;;;;3.98;52.22;100410.66;105205;1259;59796;-59
2023/11/21 11:04:22;;;;;;;11.60;3.70;;;;;;;3.97;52.09;100409.86;106006;1259;66410;-61
2023/11/21 11:06:56;;;;;;;15.30;4.50;;;;;;;3.97;51.95;100411.08;106484;1266;61868;-59
2023/11/21 11:09:28;;;;;;;12.60;5.00;;;;;;;3.97;52.07;100412.81;105692;1258;64068;-60
2023/11/21 11:11:57;;;;;;;13.20;4.60;;;;;;;3.96;51.97;100409.25;105754;1259;59616;-60
2023/11/21 11:14:25;;;;;;;8.10;3.70;;;;;;;3.91;51.91;100413.80;105889;1253;59712;-59
2023/11/21 11:16:54;;;;;;;11.10;4.10;;;;;;;3.86;52.02;100409.53;105596;1253;63050;-59
2023/11/21 11:19:21;;;;;;;10.80;4.30;;;;;;;3.85;52.11;100409.27;105805;1258;72629;-60
2023/11/21 11:21:52;;;;;;;9.10;3.50;;;;;;;3.86;52.11;100407.12;105823;1259;74945;-60
2023/11/21 11:25:13;;;;;;;8.20;3.30;;;;;;;3.86;51.99;100408.30;105219;1268;60204;-62
2023/11/21 11:27:50;;;;;;;14.40;4.50;;;;;;;3.88;52.05;100400.42;104979;1259;59648;-60